sensor_id;sensor_type;location;lat;lon;timestamp;pressure;altitude;pressure_sealevel;temperature;humidity
61039;BME280;46919;45.816;3.104;2023-05-10T00:02:23;97897.72;;;11.38;91.89
61039;BME280;46919;45.816;3.104;2023-05-10T00:04:49;97903.28;;;11.44;90.51
61039;BME280;46919;45.816;3.104;2023-05-10T00:07:15;97891.63;;;11.43;90.16
61039;BME280;46919;45.816;3.104;2023-05-10T00:09:42;97898.78;;;11.37;90.82
61039;BME280;46919;45.816;3.104;2023-05-10T00:12:08;97897.59;;;11.33;90.53
61039;BME280;46919;45.816;3.104;2023-05-10T00:14:33;97896.88;;;11.26;90.72
61039;BME280;46919;45.816;3.104;2023-05-10T00:16:59;97898.38;;;11.22;90.37
61039;BME280;46919;45.816;3.104;2023-05-10T00:19:24;97896.88;;;11.26;89.89
61039;BME280;46919;45.816;3.104;2023-05-10T00:21:49;97885.06;;;11.20;89.98
61039;BME280;46919;45.816;3.104;2023-05-10T00:24:15;97892.97;;;11.22;89.48
61039;BME280;46919;45.816;3.104;2023-05-10T00:26:40;97887.88;;;11.14;90.10
61039;BME280;46919;45.816;3.104;2023-05-10T00:29:07;97885.63;;;11.11;89.16
61039;BME280;46919;45.816;3.104;2023-05-10T00:31:32;97881.25;;;11.10;89.41
61039;BME280;46919;45.816;3.104;2023-05-10T00:33:58;97882.91;;;11.11;89.29
61039;BME280;46919;45.816;3.104;2023-05-10T00:36:23;97893.38;;;11.07;89.78
61039;BME280;46919;45.816;3.104;2023-05-10T00:38:49;97888.19;;;11.05;89.59
61039;BME280;46919;45.816;3.104;2023-05-10T00:41:14;97895.69;;;11.03;88.48
61039;BME280;46919;45.816;3.104;2023-05-10T00:43:40;97888.78;;;11.08;88.35
61039;BME280;46919;45.816;3.104;2023-05-10T00:46:06;97893.84;;;11.04;89.42
61039;BME280;46919;45.816;3.104;2023-05-10T00:48:32;97898.41;;;11.03;88.08
61039;BME280;46919;45.816;3.104;2023-05-10T00:50:58;97880.91;;;11.06;86.88
61039;BME280;46919;45.816;3.104;2023-05-10T00:53:24;97871.97;;;11.05;85.97
61039;BME280;46919;45.816;3.104;2023-05-10T00:55:50;97897.81;;;11.01;85.32
61039;BME280;46919;45.816;3.104;2023-05-10T00:58:16;97890.00;;;10.93;86.34
61039;BME280;46919;45.816;3.104;2023-05-10T01:00:42;97888.94;;;10.94;85.73
61039;BME280;46919;45.816;3.104;2023-05-10T01:03:11;97895.63;;;10.92;85.24
61039;BME280;46919;45.816;3.104;2023-05-10T01:05:37;97887.38;;;10.86;84.26
61039;BME280;46919;45.816;3.104;2023-05-10T01:08:03;97889.88;;;10.88;83.69
61039;BME280;46919;45.816;3.104;2023-05-10T01:10:29;97888.28;;;10.80;84.18
61039;BME280;46919;45.816;3.104;2023-05-10T01:12:54;97901.88;;;10.74;84.93
61039;BME280;46919;45.816;3.104;2023-05-10T01:15:20;97898.50;;;10.60;85.76
61039;BME280;46919;45.816;3.104;2023-05-10T01:17:47;97888.16;;;10.57;86.04
61039;BME280;46919;45.816;3.104;2023-05-10T01:20:14;97895.88;;;10.53;86.21
61039;BME280;46919;45.816;3.104;2023-05-10T01:34:42;97902.06;;;10.35;83.49
61039;BME280;46919;45.816;3.104;2023-05-10T01:37:18;97884.69;;;10.24;85.40
61039;BME280;46919;45.816;3.104;2023-05-10T01:42:47;97906.47;;;10.29;82.58
61039;BME280;46919;45.816;3.104;2023-05-10T01:47:43;97898.03;;;10.19;80.96
61039;BME280;46919;45.816;3.104;2023-05-10T01:50:18;97903.88;;;10.16;82.11
61039;BME280;46919;45.816;3.104;2023-05-10T01:52:49;97902.25;;;10.15;81.66
61039;BME280;46919;45.816;3.104;2023-05-10T01:55:18;97891.03;;;10.11;81.83
61039;BME280;46919;45.816;3.104;2023-05-10T01:57:46;97905.44;;;10.05;82.88
61039;BME280;46919;45.816;3.104;2023-05-10T02:00:14;97909.41;;;10.03;82.67
61039;BME280;46919;45.816;3.104;2023-05-10T02:02:45;97911.94;;;9.97;83.38
61039;BME280;46919;45.816;3.104;2023-05-10T02:05:13;97908.19;;;9.98;82.75
61039;BME280;46919;45.816;3.104;2023-05-10T02:07:39;97911.09;;;9.97;81.95
61039;BME280;46919;45.816;3.104;2023-05-10T02:10:07;97913.66;;;9.92;82.01
61039;BME280;46919;45.816;3.104;2023-05-10T02:12:39;97923.63;;;9.91;82.18
61039;BME280;46919;45.816;3.104;2023-05-10T02:15:07;97925.97;;;9.81;83.56
61039;BME280;46919;45.816;3.104;2023-05-10T02:17:34;97924.59;;;9.72;84.80
61039;BME280;46919;45.816;3.104;2023-05-10T02:20:02;97926.25;;;9.73;84.80
61039;BME280;46919;45.816;3.104;2023-05-10T02:22:29;97928.78;;;9.68;85.11
61039;BME280;46919;45.816;3.104;2023-05-10T02:24:58;97944.56;;;9.64;85.42
61039;BME280;46919;45.816;3.104;2023-05-10T02:27:26;97940.44;;;9.61;85.81
61039;BME280;46919;45.816;3.104;2023-05-10T02:29:53;97939.00;;;9.59;86.34
61039;BME280;46919;45.816;3.104;2023-05-10T02:32:21;97932.94;;;9.64;85.06
61039;BME280;46919;45.816;3.104;2023-05-10T02:34:48;97933.34;;;9.67;84.66
61039;BME280;46919;45.816;3.104;2023-05-10T02:37:19;97936.47;;;9.64;83.85
61039;BME280;46919;45.816;3.104;2023-05-10T02:39:47;97930.84;;;9.66;83.12
61039;BME280;46919;45.816;3.104;2023-05-10T02:42:16;97938.94;;;9.66;83.39
61039;BME280;46919;45.816;3.104;2023-05-10T02:44:43;97932.19;;;9.56;84.50
61039;BME280;46919;45.816;3.104;2023-05-10T02:47:10;97934.88;;;9.56;84.66
61039;BME280;46919;45.816;3.104;2023-05-10T02:49:36;97943.63;;;9.52;85.37
61039;BME280;46919;45.816;3.104;2023-05-10T02:52:04;97937.97;;;9.60;83.44
61039;BME280;46919;45.816;3.104;2023-05-10T02:54:33;97945.03;;;9.54;83.67
61039;BME280;46919;45.816;3.104;2023-05-10T02:57:04;97947.13;;;9.52;83.85
61039;BME280;46919;45.816;3.104;2023-05-10T02:59:30;97941.56;;;9.47;83.42
61039;BME280;46919;45.816;3.104;2023-05-10T03:01:58;97957.34;;;9.43;83.63
61039;BME280;46919;45.816;3.104;2023-05-10T03:04:25;97954.22;;;9.47;82.92
61039;BME280;46919;45.816;3.104;2023-05-10T03:06:50;97957.75;;;9.47;82.64
61039;BME280;46919;45.816;3.104;2023-05-10T03:09:16;97955.50;;;9.44;83.23
61039;BME280;46919;45.816;3.104;2023-05-10T03:12:11;97970.91;;;9.30;84.54
61039;BME280;46919;45.816;3.104;2023-05-10T03:17:52;97969.84;;;9.38;83.28
61039;BME280;46919;45.816;3.104;2023-05-10T03:21:11;97964.47;;;9.31;83.92
61039;BME280;46919;45.816;3.104;2023-05-10T03:25:50;97972.59;;;9.18;85.70
61039;BME280;46919;45.816;3.104;2023-05-10T03:28:17;97974.69;;;9.16;86.52
61039;BME280;46919;45.816;3.104;2023-05-10T03:30:43;97968.91;;;9.12;85.73
61039;BME280;46919;45.816;3.104;2023-05-10T03:33:10;97963.53;;;9.12;85.96
61039;BME280;46919;45.816;3.104;2023-05-10T03:35:35;97966.41;;;9.17;84.93
61039;BME280;46919;45.816;3.104;2023-05-10T03:38:01;97965.59;;;9.10;85.54
61039;BME280;46919;45.816;3.104;2023-05-10T03:40:27;97965.19;;;9.06;85.65
61039;BME280;46919;45.816;3.104;2023-05-10T03:42:58;97970.00;;;8.98;85.89
61039;BME280;46919;45.816;3.104;2023-05-10T03:45:23;97961.47;;;9.07;83.46
61039;BME280;46919;45.816;3.104;2023-05-10T03:47:49;97970.34;;;9.15;82.56
61039;BME280;46919;45.816;3.104;2023-05-10T03:50:14;97972.47;;;9.06;83.13
61039;BME280;46919;45.816;3.104;2023-05-10T03:52:39;97970.00;;;8.91;85.35
61039;BME280;46919;45.816;3.104;2023-05-10T03:55:05;97969.22;;;8.84;87.26
61039;BME280;46919;45.816;3.104;2023-05-10T03:57:31;97963.63;;;8.79;87.11
61039;BME280;46919;45.816;3.104;2023-05-10T03:59:57;97968.59;;;8.75;87.80
61039;BME280;46919;45.816;3.104;2023-05-10T04:02:23;97963.22;;;8.75;86.84
61039;BME280;46919;45.816;3.104;2023-05-10T04:04:48;97968.59;;;8.75;85.99
61039;BME280;46919;45.816;3.104;2023-05-10T04:07:14;97973.53;;;8.85;83.23
61039;BME280;46919;45.816;3.104;2023-05-10T04:09:39;97980.81;;;8.84;83.62
61039;BME280;46919;45.816;3.104;2023-05-10T04:12:05;97972.31;;;8.87;84.37
61039;BME280;46919;45.816;3.104;2023-05-10T04:14:30;97967.94;;;8.93;83.20
61039;BME280;46919;45.816;3.104;2023-05-10T04:16:56;97974.81;;;8.82;84.28
61039;BME280;46919;45.816;3.104;2023-05-10T04:19:21;97970.06;;;8.71;85.21
61039;BME280;46919;45.816;3.104;2023-05-10T04:21:47;97963.66;;;8.65;83.57
61039;BME280;46919;45.816;3.104;2023-05-10T04:24:12;97963.44;;;8.80;82.31
61039;BME280;46919;45.816;3.104;2023-05-10T04:26:37;97962.38;;;8.81;82.89
61039;BME280;46919;45.816;3.104;2023-05-10T04:29:03;97962.78;;;8.78;82.16
61039;BME280;46919;45.816;3.104;2023-05-10T04:31:28;97959.91;;;8.73;82.97
61039;BME280;46919;45.816;3.104;2023-05-10T04:33:54;97963.47;;;8.60;85.01
61039;BME280;46919;45.816;3.104;2023-05-10T04:36:19;97960.53;;;8.68;83.36
61039;BME280;46919;45.816;3.104;2023-05-10T04:38:45;97965.06;;;8.81;83.14
61039;BME280;46919;45.816;3.104;2023-05-10T04:41:10;97961.75;;;8.79;82.82
61039;BME280;46919;45.816;3.104;2023-05-10T04:43:37;97969.78;;;8.93;82.31
61039;BME280;46919;45.816;3.104;2023-05-10T04:46:04;97959.81;;;9.06;80.12
61039;BME280;46919;45.816;3.104;2023-05-10T04:48:30;97967.25;;;9.11;80.41
61039;BME280;46919;45.816;3.104;2023-05-10T04:50:55;97972.03;;;9.09;81.28
61039;BME280;46919;45.816;3.104;2023-05-10T04:53:21;97975.59;;;9.03;82.79
61039;BME280;46919;45.816;3.104;2023-05-10T04:55:47;97972.94;;;8.83;84.29
61039;BME280;46919;45.816;3.104;2023-05-10T04:58:13;97976.91;;;8.67;85.83
61039;BME280;46919;45.816;3.104;2023-05-10T05:00:38;97973.59;;;8.72;86.25
61039;BME280;46919;45.816;3.104;2023-05-10T05:03:04;97978.78;;;8.66;87.28
61039;BME280;46919;45.816;3.104;2023-05-10T05:05:30;97963.06;;;8.57;88.72
61039;BME280;46919;45.816;3.104;2023-05-10T05:07:55;97969.91;;;8.52;89.66
61039;BME280;46919;45.816;3.104;2023-05-10T05:10:21;97974.03;;;8.55;88.79
61039;BME280;46919;45.816;3.104;2023-05-10T05:12:46;97975.84;;;8.81;87.06
61039;BME280;46919;45.816;3.104;2023-05-10T05:15:12;97967.53;;;8.89;86.13
61039;BME280;46919;45.816;3.104;2023-05-10T05:17:37;97978.09;;;8.98;86.71
61039;BME280;46919;45.816;3.104;2023-05-10T05:20:03;97975.56;;;9.10;86.74
61039;BME280;46919;45.816;3.104;2023-05-10T05:22:29;97978.03;;;9.11;87.41
61039;BME280;46919;45.816;3.104;2023-05-10T05:24:55;97981.34;;;9.13;86.53
61039;BME280;46919;45.816;3.104;2023-05-10T05:27:20;97981.75;;;9.10;87.20
61039;BME280;46919;45.816;3.104;2023-05-10T05:29:49;97982.19;;;9.07;87.99
61039;BME280;46919;45.816;3.104;2023-05-10T05:32:15;97993.41;;;9.11;87.60
61039;BME280;46919;45.816;3.104;2023-05-10T05:34:40;98003.91;;;9.25;86.61
61039;BME280;46919;45.816;3.104;2023-05-10T05:37:06;98005.72;;;9.38;84.62
61039;BME280;46919;45.816;3.104;2023-05-10T05:39:31;98003.84;;;9.46;84.09
61039;BME280;46919;45.816;3.104;2023-05-10T05:41:56;97999.84;;;9.55;84.62
61039;BME280;46919;45.816;3.104;2023-05-10T05:44:23;98005.00;;;9.63;85.58
61039;BME280;46919;45.816;3.104;2023-05-10T05:46:48;98014.72;;;9.64;86.92
61039;BME280;46919;45.816;3.104;2023-05-10T05:49:14;98007.22;;;9.73;87.32
61039;BME280;46919;45.816;3.104;2023-05-10T05:51:39;98007.97;;;9.80;87.72
61039;BME280;46919;45.816;3.104;2023-05-10T05:54:05;98015.88;;;9.82;84.46
61039;BME280;46919;45.816;3.104;2023-05-10T05:56:31;98008.19;;;9.78;83.56
61039;BME280;46919;45.816;3.104;2023-05-10T05:58:56;98011.97;;;9.77;83.33
61039;BME280;46919;45.816;3.104;2023-05-10T06:01:22;98025.09;;;9.67;85.50
61039;BME280;46919;45.816;3.104;2023-05-10T06:03:47;98020.53;;;9.61;85.31
61039;BME280;46919;45.816;3.104;2023-05-10T06:06:13;98014.13;;;9.62;83.62
61039;BME280;46919;45.816;3.104;2023-05-10T06:08:38;98012.44;;;9.61;85.05
61039;BME280;46919;45.816;3.104;2023-05-10T06:11:03;98005.25;;;9.55;85.47
61039;BME280;46919;45.816;3.104;2023-05-10T06:13:29;98013.09;;;9.63;83.49
61039;BME280;46919;45.816;3.104;2023-05-10T06:15:58;98014.72;;;9.64;83.83
61039;BME280;46919;45.816;3.104;2023-05-10T06:18:23;98011.81;;;9.66;85.17
61039;BME280;46919;45.816;3.104;2023-05-10T06:20:49;98015.13;;;9.68;85.57
61039;BME280;46919;45.816;3.104;2023-05-10T06:23:15;98012.94;;;9.83;84.13
61039;BME280;46919;45.816;3.104;2023-05-10T06:25:40;98012.50;;;9.93;84.45
61039;BME280;46919;45.816;3.104;2023-05-10T06:28:06;98003.34;;;9.94;83.31
61039;BME280;46919;45.816;3.104;2023-05-10T06:30:31;98016.03;;;9.93;83.54
61039;BME280;46919;45.816;3.104;2023-05-10T06:32:57;98004.94;;;10.02;81.47
61039;BME280;46919;45.816;3.104;2023-05-10T06:35:22;98012.03;;;10.03;81.62
61039;BME280;46919;45.816;3.104;2023-05-10T06:37:48;98017.16;;;10.11;82.05
61039;BME280;46919;45.816;3.104;2023-05-10T06:40:13;98017.31;;;10.16;81.53
61039;BME280;46919;45.816;3.104;2023-05-10T06:42:39;98021.69;;;10.17;79.72
61039;BME280;46919;45.816;3.104;2023-05-10T06:45:05;98018.31;;;10.22;80.60
61039;BME280;46919;45.816;3.104;2023-05-10T06:47:30;98026.38;;;10.28;79.30
61039;BME280;46919;45.816;3.104;2023-05-10T06:49:56;98027.81;;;10.31;79.11
61039;BME280;46919;45.816;3.104;2023-05-10T06:52:22;98027.16;;;10.36;76.62
61039;BME280;46919;45.816;3.104;2023-05-10T06:54:48;98021.31;;;10.39;76.32
61039;BME280;46919;45.816;3.104;2023-05-10T06:57:13;98023.78;;;10.47;76.47
61039;BME280;46919;45.816;3.104;2023-05-10T06:59:39;98033.69;;;10.53;76.68
61039;BME280;46919;45.816;3.104;2023-05-10T07:02:05;98029.19;;;10.40;77.91
61039;BME280;46919;45.816;3.104;2023-05-10T07:04:30;98026.38;;;10.28;78.42
61039;BME280;46919;45.816;3.104;2023-05-10T07:06:56;98032.03;;;10.20;79.07
61039;BME280;46919;45.816;3.104;2023-05-10T07:09:22;98037.22;;;10.22;78.42
61039;BME280;46919;45.816;3.104;2023-05-10T07:11:49;98037.16;;;10.35;76.12
61039;BME280;46919;45.816;3.104;2023-05-10T07:14:15;98023.94;;;10.52;74.20
61039;BME280;46919;45.816;3.104;2023-05-10T07:16:40;98020.59;;;10.75;73.90
61039;BME280;46919;45.816;3.104;2023-05-10T07:19:05;98019.47;;;10.83;73.95
61039;BME280;46919;45.816;3.104;2023-05-10T07:21:31;98028.81;;;10.87;74.11
61039;BME280;46919;45.816;3.104;2023-05-10T07:23:57;98028.03;;;10.80;73.39
61039;BME280;46919;45.816;3.104;2023-05-10T07:26:22;98022.25;;;10.76;73.68
61039;BME280;46919;45.816;3.104;2023-05-10T07:28:49;98023.50;;;10.74;73.98
61039;BME280;46919;45.816;3.104;2023-05-10T07:31:14;98021.50;;;10.69;75.09
61039;BME280;46919;45.816;3.104;2023-05-10T07:33:40;98018.63;;;10.64;75.25
61039;BME280;46919;45.816;3.104;2023-05-10T07:36:06;98025.31;;;10.61;74.57
61039;BME280;46919;45.816;3.104;2023-05-10T07:38:31;98031.09;;;10.65;75.30
61039;BME280;46919;45.816;3.104;2023-05-10T07:40:56;98020.06;;;10.66;75.14
61039;BME280;46919;45.816;3.104;2023-05-10T07:43:22;98027.72;;;10.69;73.36
61039;BME280;46919;45.816;3.104;2023-05-10T07:45:47;98017.41;;;10.85;72.87
61039;BME280;46919;45.816;3.104;2023-05-10T07:48:13;98039.91;;;10.97;72.87
61039;BME280;46919;45.816;3.104;2023-05-10T07:50:38;98036.50;;;11.09;72.59
61039;BME280;46919;45.816;3.104;2023-05-10T07:53:03;98027.16;;;11.04;67.78
61039;BME280;46919;45.816;3.104;2023-05-10T07:55:29;98029.66;;;11.06;70.40
61039;BME280;46919;45.816;3.104;2023-05-10T07:57:54;98047.97;;;11.22;68.52
61039;BME280;46919;45.816;3.104;2023-05-10T08:00:20;98033.63;;;11.22;66.11
61039;BME280;46919;45.816;3.104;2023-05-10T08:02:46;98024.03;;;11.26;64.35
61039;BME280;46919;45.816;3.104;2023-05-10T08:05:12;98012.44;;;11.37;64.40
61039;BME280;46919;45.816;3.104;2023-05-10T08:07:37;98030.25;;;11.45;63.88
61039;BME280;46919;45.816;3.104;2023-05-10T08:10:04;98009.41;;;11.46;62.48
61039;BME280;46919;45.816;3.104;2023-05-10T08:12:30;98009.25;;;11.59;63.38
61039;BME280;46919;45.816;3.104;2023-05-10T08:14:55;98004.00;;;11.64;61.61
61039;BME280;46919;45.816;3.104;2023-05-10T08:17:21;98005.81;;;11.52;62.11
61039;BME280;46919;45.816;3.104;2023-05-10T08:19:46;97988.03;;;11.56;63.75
61039;BME280;46919;45.816;3.104;2023-05-10T08:22:11;97996.94;;;11.45;63.09
61039;BME280;46919;45.816;3.104;2023-05-10T08:24:37;98011.59;;;11.37;64.52
61039;BME280;46919;45.816;3.104;2023-05-10T08:27:07;97997.84;;;11.38;63.90
61039;BME280;46919;45.816;3.104;2023-05-10T08:29:33;98001.31;;;11.46;62.29
61039;BME280;46919;45.816;3.104;2023-05-10T08:31:58;97987.88;;;11.69;60.88
61039;BME280;46919;45.816;3.104;2023-05-10T08:34:23;97997.09;;;11.80;59.51
61039;BME280;46919;45.816;3.104;2023-05-10T08:36:50;97989.63;;;11.94;57.92
61039;BME280;46919;45.816;3.104;2023-05-10T08:39:15;97988.25;;;12.03;55.97
61039;BME280;46919;45.816;3.104;2023-05-10T08:41:43;98004.44;;;12.22;58.43
61039;BME280;46919;45.816;3.104;2023-05-10T08:44:10;98022.81;;;12.20;57.01
61039;BME280;46919;45.816;3.104;2023-05-10T08:46:37;98007.53;;;11.95;59.10
61039;BME280;46919;45.816;3.104;2023-05-10T08:49:06;98010.63;;;11.80;60.83
61039;BME280;46919;45.816;3.104;2023-05-10T08:51:36;98004.03;;;12.06;61.24
61039;BME280;46919;45.816;3.104;2023-05-10T08:54:03;97998.72;;;12.00;61.40
61039;BME280;46919;45.816;3.104;2023-05-10T08:56:29;98012.09;;;12.25;61.23
61039;BME280;46919;45.816;3.104;2023-05-10T08:58:55;98004.09;;;12.30;59.64
61039;BME280;46919;45.816;3.104;2023-05-10T09:01:21;98007.19;;;12.45;59.63
61039;BME280;46919;45.816;3.104;2023-05-10T09:03:47;97997.25;;;12.51;58.92
61039;BME280;46919;45.816;3.104;2023-05-10T09:06:13;97998.69;;;12.77;59.38
61039;BME280;46919;45.816;3.104;2023-05-10T09:08:41;97998.91;;;12.99;59.55
61039;BME280;46919;45.816;3.104;2023-05-10T09:11:08;97989.00;;;13.05;60.09
61039;BME280;46919;45.816;3.104;2023-05-10T09:13:35;98007.84;;;13.23;59.64
61039;BME280;46919;45.816;3.104;2023-05-10T09:16:02;97997.84;;;13.12;58.17
61039;BME280;46919;45.816;3.104;2023-05-10T09:18:28;98002.25;;;12.90;58.14
61039;BME280;46919;45.816;3.104;2023-05-10T09:20:54;98012.25;;;12.77;57.91
61039;BME280;46919;45.816;3.104;2023-05-10T09:23:19;98002.94;;;12.61;57.67
61039;BME280;46919;45.816;3.104;2023-05-10T09:25:45;97998.34;;;12.74;56.86
61039;BME280;46919;45.816;3.104;2023-05-10T09:28:11;98004.00;;;12.72;56.89
61039;BME280;46919;45.816;3.104;2023-05-10T09:30:37;98004.72;;;12.67;56.63
61039;BME280;46919;45.816;3.104;2023-05-10T09:33:03;98004.34;;;12.87;56.95
61039;BME280;46919;45.816;3.104;2023-05-10T09:35:30;97991.25;;;12.84;58.04
61039;BME280;46919;45.816;3.104;2023-05-10T09:38:01;97995.31;;;13.22;57.17
61039;BME280;46919;45.816;3.104;2023-05-10T09:40:28;97988.75;;;13.18;57.87
61039;BME280;46919;45.816;3.104;2023-05-10T09:43:06;97988.13;;;13.28;56.24
61039;BME280;46919;45.816;3.104;2023-05-10T09:45:34;97997.69;;;13.31;55.56
61039;BME280;46919;45.816;3.104;2023-05-10T09:48:01;97995.44;;;13.39;55.16
61039;BME280;46919;45.816;3.104;2023-05-10T09:50:28;97993.03;;;13.55;55.86
61039;BME280;46919;45.816;3.104;2023-05-10T09:53:01;97998.53;;;13.72;55.17
61039;BME280;46919;45.816;3.104;2023-05-10T09:55:44;97996.00;;;13.53;54.94
61039;BME280;46919;45.816;3.104;2023-05-10T09:58:11;98009.75;;;13.64;56.13
61039;BME280;46919;45.816;3.104;2023-05-10T10:00:44;98003.28;;;13.65;54.19
61039;BME280;46919;45.816;3.104;2023-05-10T10:03:17;98008.00;;;13.57;55.01
61039;BME280;46919;45.816;3.104;2023-05-10T10:05:43;98010.16;;;13.55;56.38
61039;BME280;46919;45.816;3.104;2023-05-10T10:08:10;98002.47;;;13.52;57.05
61039;BME280;46919;45.816;3.104;2023-05-10T10:10:36;98026.13;;;13.40;56.28
61039;BME280;46919;45.816;3.104;2023-05-10T10:13:02;98003.38;;;13.17;55.94
61039;BME280;46919;45.816;3.104;2023-05-10T10:15:27;98008.09;;;13.22;56.66
61039;BME280;46919;45.816;3.104;2023-05-10T10:17:54;97999.19;;;13.50;56.22
61039;BME280;46919;45.816;3.104;2023-05-10T10:20:20;98006.63;;;13.55;55.96
61039;BME280;46919;45.816;3.104;2023-05-10T10:22:47;97999.94;;;13.74;54.94
61039;BME280;46919;45.816;3.104;2023-05-10T10:25:17;98002.97;;;13.78;55.55
61039;BME280;46919;45.816;3.104;2023-05-10T10:36:15;97971.25;;;14.12;52.07
61039;BME280;46919;45.816;3.104;2023-05-10T10:41:29;97982.16;;;14.29;51.16
61039;BME280;46919;45.816;3.104;2023-05-10T10:44:24;97984.63;;;14.31;51.78
61039;BME280;46919;45.816;3.104;2023-05-10T10:47:21;97985.69;;;14.47;53.22
61039;BME280;46919;45.816;3.104;2023-05-10T10:50:04;97986.22;;;14.61;53.24
61039;BME280;46919;45.816;3.104;2023-05-10T10:55:12;97994.84;;;14.58;51.97
61039;BME280;46919;45.816;3.104;2023-05-10T11:03:03;97984.63;;;14.82;51.97
61039;BME280;46919;45.816;3.104;2023-05-10T11:08:19;97981.03;;;14.98;51.18
61039;BME280;46919;45.816;3.104;2023-05-10T11:13:30;97966.16;;;14.84;47.08
61039;BME280;46919;45.816;3.104;2023-05-10T11:15:56;97983.16;;;14.74;50.05
61039;BME280;46919;45.816;3.104;2023-05-10T11:18:29;97992.13;;;14.75;50.11
61039;BME280;46919;45.816;3.104;2023-05-10T11:21:00;97973.06;;;14.75;50.23
61039;BME280;46919;45.816;3.104;2023-05-10T11:26:07;97979.03;;;14.72;49.04
61039;BME280;46919;45.816;3.104;2023-05-10T11:28:43;97971.28;;;14.63;48.90
61039;BME280;46919;45.816;3.104;2023-05-10T11:31:09;97972.09;;;14.81;48.93
61039;BME280;46919;45.816;3.104;2023-05-10T11:33:49;97956.00;;;14.79;48.36
61039;BME280;46919;45.816;3.104;2023-05-10T11:36:19;97964.66;;;14.93;48.76
61039;BME280;46919;45.816;3.104;2023-05-10T11:38:46;97971.38;;;15.08;48.87
61039;BME280;46919;45.816;3.104;2023-05-10T11:41:12;97963.84;;;14.76;48.63
61039;BME280;46919;45.816;3.104;2023-05-10T11:43:40;97962.06;;;14.64;48.75
61039;BME280;46919;45.816;3.104;2023-05-10T11:46:08;97963.34;;;14.79;49.03
61039;BME280;46919;45.816;3.104;2023-05-10T11:48:35;97968.31;;;14.82;49.21
61039;BME280;46919;45.816;3.104;2023-05-10T11:51:01;97959.94;;;14.89;48.63
61039;BME280;46919;45.816;3.104;2023-05-10T11:53:32;97952.72;;;14.77;48.76
61039;BME280;46919;45.816;3.104;2023-05-10T11:56:10;97945.38;;;14.78;48.44
61039;BME280;46919;45.816;3.104;2023-05-10T11:58:37;97947.69;;;15.08;49.01
61039;BME280;46919;45.816;3.104;2023-05-10T12:01:04;97940.28;;;15.26;48.36
61039;BME280;46919;45.816;3.104;2023-05-10T12:03:30;97941.59;;;15.45;48.97
61039;BME280;46919;45.816;3.104;2023-05-10T12:05:57;97937.88;;;15.29;48.56
61039;BME280;46919;45.816;3.104;2023-05-10T12:08:28;97946.63;;;15.09;49.18
61039;BME280;46919;45.816;3.104;2023-05-10T12:11:04;97940.72;;;14.95;48.48
61039;BME280;46919;45.816;3.104;2023-05-10T12:13:29;97939.41;;;14.98;49.58
61039;BME280;46919;45.816;3.104;2023-05-10T12:15:58;97950.09;;;15.04;49.98
61039;BME280;46919;45.816;3.104;2023-05-10T12:18:24;97949.78;;;15.01;50.32
61039;BME280;46919;45.816;3.104;2023-05-10T12:20:52;97949.16;;;15.16;50.54
61039;BME280;46919;45.816;3.104;2023-05-10T12:23:19;97946.63;;;15.81;50.26
61039;BME280;46919;45.816;3.104;2023-05-10T12:25:45;97937.19;;;15.88;50.41
61039;BME280;46919;45.816;3.104;2023-05-10T12:28:10;97936.09;;;16.22;50.03
61039;BME280;46919;45.816;3.104;2023-05-10T12:30:36;97932.31;;;16.23;49.91
61039;BME280;46919;45.816;3.104;2023-05-10T12:33:08;97930.13;;;16.25;50.63
61039;BME280;46919;45.816;3.104;2023-05-10T12:35:43;97930.00;;;16.09;48.47
61039;BME280;46919;45.816;3.104;2023-05-10T12:38:38;97924.53;;;16.09;48.97
61039;BME280;46919;45.816;3.104;2023-05-10T12:41:06;97913.38;;;16.43;49.45
61039;BME280;46919;45.816;3.104;2023-05-10T12:43:32;97918.22;;;16.79;48.84
61039;BME280;46919;45.816;3.104;2023-05-10T12:45:58;97911.63;;;17.28;48.54
61039;BME280;46919;45.816;3.104;2023-05-10T12:48:24;97904.09;;;17.71;47.47
61039;BME280;46919;45.816;3.104;2023-05-10T12:50:50;97898.44;;;18.24;46.45
61039;BME280;46919;45.816;3.104;2023-05-10T12:53:15;97901.69;;;18.05;44.90
61039;BME280;46919;45.816;3.104;2023-05-10T12:55:42;97906.28;;;17.79;45.22
61039;BME280;46919;45.816;3.104;2023-05-10T12:58:08;97903.78;;;17.42;44.31
61039;BME280;46919;45.816;3.104;2023-05-10T13:00:33;97903.28;;;16.87;45.14
61039;BME280;46919;45.816;3.104;2023-05-10T13:02:58;97907.56;;;16.82;46.20
61039;BME280;46919;45.816;3.104;2023-05-10T13:05:24;97933.28;;;16.44;47.62
61039;BME280;46919;45.816;3.104;2023-05-10T13:07:49;97946.31;;;16.04;48.85
61039;BME280;46919;45.816;3.104;2023-05-10T13:10:15;97938.41;;;16.35;49.41
61039;BME280;46919;45.816;3.104;2023-05-10T13:12:41;97932.13;;;17.30;49.28
61039;BME280;46919;45.816;3.104;2023-05-10T13:15:07;97936.31;;;17.59;48.05
61039;BME280;46919;45.816;3.104;2023-05-10T13:17:32;97926.94;;;17.29;47.73
61039;BME280;46919;45.816;3.104;2023-05-10T13:19:58;97927.94;;;17.02;48.55
61039;BME280;46919;45.816;3.104;2023-05-10T13:22:23;97922.41;;;16.97;48.66
61039;BME280;46919;45.816;3.104;2023-05-10T13:24:48;97925.47;;;17.00;49.00
61039;BME280;46919;45.816;3.104;2023-05-10T13:27:14;97922.13;;;16.88;49.62
61039;BME280;46919;45.816;3.104;2023-05-10T13:29:39;97928.16;;;16.53;49.00
61039;BME280;46919;45.816;3.104;2023-05-10T13:32:05;97920.44;;;16.44;48.67
61039;BME280;46919;45.816;3.104;2023-05-10T13:34:30;97914.53;;;16.58;49.13
61039;BME280;46919;45.816;3.104;2023-05-10T13:36:55;97918.84;;;16.48;48.03
61039;BME280;46919;45.816;3.104;2023-05-10T13:39:21;97913.75;;;16.25;48.74
61039;BME280;46919;45.816;3.104;2023-05-10T13:41:47;97908.00;;;16.16;49.72
61039;BME280;46919;45.816;3.104;2023-05-10T13:44:13;97903.16;;;16.28;49.80
61039;BME280;46919;45.816;3.104;2023-05-10T13:46:40;97890.97;;;16.41;50.16
61039;BME280;46919;45.816;3.104;2023-05-10T13:49:06;97891.84;;;16.52;50.08
61039;BME280;46919;45.816;3.104;2023-05-10T13:51:31;97893.88;;;16.67;50.04
61039;BME280;46919;45.816;3.104;2023-05-10T13:53:57;97884.72;;;16.89;50.06
61039;BME280;46919;45.816;3.104;2023-05-10T13:56:23;97878.09;;;16.79;49.60